Time;durP1;ratioP1;P1;durP2;ratioP2;P2;SDS_P1;SDS_P2;PMS_P1;PMS_P2;Temp;Humidity;BMP_temperature;BMP_pressure;BME280_temperature;BME280_humidity;BME280_pressure;Samples;Min_cycle;Max_cycle;Signal;HPM_P1;HPM_P2
2023/04/02 00:01:53;;;;;;;;;15.33;9.00;;;;;12.56;61.09;100948.50;4945582;28;45291;-44
2023/04/02 00:04:25;;;;;;;;;12.33;6.00;;;;;12.56;60.99;100951.16;5000622;28;45298;-44
2023/04/02 00:07:14;;;;;;;;;8.67;8.00;;;;;12.55;60.71;100954.78;5000143;28;46077;-46
2023/04/02 00:09:40;;;;;;;;;12.67;11.00;;;;;12.53;60.64;100946.94;4999966;28;45322;-45
2023/04/02 00:12:15;;;;;;;;;9.00;8.67;;;;;12.48;61.14;100957.25;5000102;28;45384;-46
2023/04/02 00:14:46;;;;;;;;;7.33;6.00;;;;;12.52;61.03;100957.78;4983123;28;45330;-45
2023/04/02 00:17:12;;;;;;;;;6.33;6.33;;;;;12.42;60.79;100957.84;4999938;28;46159;-44
2023/04/02 00:19:48;;;;;;;;;4.67;4.00;;;;;12.39;60.40;100944.84;4999919;28;45330;-45
2023/04/02 00:22:19;;;;;;;;;4.00;4.00;;;;;12.32;60.69;100939.28;5000210;28;45361;-48
2023/04/02 00:24:48;;;;;;;;;3.67;3.67;;;;;12.46;60.65;100964.56;5000525;28;45234;-47
2023/04/02 00:27:14;;;;;;;;;6.67;4.00;;;;;12.46;61.00;100973.41;4999640;28;46175;-44
2023/04/02 00:29:52;;;;;;;;;4.00;4.00;;;;;12.45;60.82;100973.56;4982205;28;45259;-45
2023/04/02 00:32:40;;;;;;;;;7.33;4.00;;;;;12.47;61.12;100969.75;5000018;28;45394;-45
2023/04/02 00:35:23;;;;;;;;;6.33;3.00;;;;;12.42;61.13;100963.19;4999585;28;45619;-46
2023/04/02 00:37:49;;;;;;;;;4.00;4.00;;;;;12.43;61.64;100973.72;4999688;28;46213;-44
2023/04/02 00:40:25;;;;;;;;;4.33;3.33;;;;;12.44;61.52;100974.56;4999691;28;45211;-48
2023/04/02 00:42:53;;;;;;;;;7.33;4.00;;;;;12.43;61.25;100975.53;4999947;28;45378;-44
2023/04/02 00:45:18;;;;;;;;;9.00;6.00;;;;;12.42;61.26;100973.88;5000048;28;45728;-45
2023/04/02 00:47:43;;;;;;;;;7.00;3.00;;;;;12.35;61.75;100979.00;4999330;28;46759;-43
2023/04/02 00:50:13;;;;;;;;;8.00;3.67;;;;;12.39;61.71;100984.88;4999759;28;45354;-42
2023/04/02 00:52:40;;;;;;;;;3.00;3.00;;;;;12.32;61.94;100978.44;4999618;28;45188;-43
2023/04/02 00:55:24;;;;;;;;;4.00;3.67;;;;;12.33;62.54;100986.28;4999876;28;45460;-44
2023/04/02 00:57:50;;;;;;;;;4.67;4.67;;;;;12.30;62.32;100991.09;4981492;28;46086;-50
2023/04/02 01:00:19;;;;;;;;;4.67;4.67;;;;;12.26;62.55;100987.88;4999593;28;45377;-44
2023/04/02 01:03:15;;;;;;;;;5.67;4.00;;;;;12.23;62.50;100981.03;4999394;28;45318;-46
2023/04/02 01:05:44;;;;;;;;;4.00;4.00;;;;;12.15;63.05;100988.94;4999465;28;45468;-45
2023/04/02 01:08:39;;;;;;;;;4.00;4.00;;;;;12.21;62.65;100996.34;4997732;28;46326;-47
2023/04/02 01:11:27;;;;;;;;;8.67;8.00;;;;;12.19;62.51;101006.34;4999174;28;45235;-46
2023/04/02 01:14:15;;;;;;;;;6.67;6.67;;;;;12.17;63.00;100996.78;4999051;28;45971;-46
2023/04/02 01:16:52;;;;;;;;;6.00;4.33;;;;;12.17;62.51;101010.13;4999476;28;45321;-42
2023/04/02 01:19:20;;;;;;;;;5.00;4.33;;;;;12.16;62.36;101006.63;4998835;28;45977;-45
2023/04/02 01:21:59;;;;;;;;;3.33;3.33;;;;;12.16;62.78;101009.28;4999085;28;45349;-44
2023/04/02 01:24:32;;;;;;;;;8.00;4.67;;;;;12.15;62.72;101020.94;4998994;28;45308;-46
2023/04/02 01:27:01;;;;;;;;;5.33;5.33;;;;;12.14;62.71;101013.94;4999206;28;45405;-45
2023/04/02 01:29:47;;;;;;;;;7.33;4.67;;;;;12.15;62.37;101015.63;4981076;28;46575;-44
2023/04/02 01:32:17;;;;;;;;;6.00;3.00;;;;;12.15;62.66;101020.94;4998898;28;45325;-45
2023/04/02 01:34:46;;;;;;;;;5.33;3.67;;;;;12.14;63.49;101024.63;4998883;28;45509;-44
2023/04/02 01:37:50;;;;;;;;;4.00;4.00;;;;;12.10;63.24;101023.25;4999043;28;45335;-46
2023/04/02 01:40:25;;;;;;;;;7.67;3.33;;;;;12.10;63.67;101022.41;4998066;28;46446;-44
2023/04/02 01:43:16;;;;;;;;;6.00;3.00;;;;;12.09;63.72;101021.53;4998564;28;45319;-46
2023/04/02 01:45:41;;;;;;;;;3.00;1.33;;;;;12.08;63.52;101029.69;4998813;28;45340;-46
2023/04/02 01:48:21;;;;;;;;;7.33;4.00;;;;;12.03;63.42;101021.31;4999003;28;45406;-46
2023/04/02 01:50:50;;;;;;;;;6.67;3.67;;;;;12.10;63.44;101027.72;4998713;28;45266;-44
2023/04/02 01:53:18;;;;;;;;;6.33;3.00;;;;;12.06;63.86;101026.34;4998428;28;45215;-44
2023/04/02 01:55:51;;;;;;;;;5.00;3.33;;;;;12.02;63.06;101025.81;4998361;28;45433;-45
2023/04/02 01:58:19;;;;;;;;;2.67;2.00;;;;;11.99;63.44;101026.09;4998501;28;45520;-45
2023/04/02 02:00:50;;;;;;;;;3.00;3.00;;;;;11.98;63.74;101030.59;4998367;28;45356;-45
2023/04/02 02:03:17;;;;;;;;;1.00;1.00;;;;;11.98;63.49;101024.44;4998570;28;45784;-44
2023/04/02 02:05:43;;;;;;;;;3.67;3.00;;;;;11.90;63.51;101025.16;4998438;28;45365;-53
2023/04/02 02:08:33;;;;;;;;;4.00;2.00;;;;;11.97;63.74;101039.59;4998585;28;45504;-44
2023/04/02 02:10:59;;;;;;;;;4.67;2.33;;;;;11.95;63.83;101038.03;4998260;28;47426;-44
2023/04/02 02:13:25;;;;;;;;;4.33;1.33;;;;;11.94;63.58;101039.88;4998050;28;45341;-44
2023/04/02 02:15:51;;;;;;;;;1.00;1.00;;;;;11.94;64.23;101047.03;4998601;28;45386;-46
2023/04/02 02:18:22;;;;;;;;;6.67;3.00;;;;;11.91;64.53;101045.50;4997918;28;45302;-44
2023/04/02 02:20:48;;;;;;;;;14.33;8.00;;;;;11.89;64.35;101047.50;4998157;28;46889;-45
2023/04/02 02:23:14;;;;;;;;;4.33;2.67;;;;;11.88;64.72;101051.16;4997929;28;45515;-45
2023/04/02 02:25:40;;;;;;;;;2.00;2.00;;;;;11.88;64.83;101050.28;4998114;28;45323;-44
2023/04/02 02:28:12;;;;;;;;;2.67;1.00;;;;;11.87;64.33;101053.94;4998250;28;45270;-47
2023/04/02 02:30:44;;;;;;;;;1.00;1.00;;;;;11.87;63.96;101061.94;4998077;28;45502;-46
2023/04/02 02:33:24;;;;;;;;;1.00;1.00;;;;;11.84;64.34;101060.44;4997976;28;45227;-44
2023/04/02 02:35:56;;;;;;;;;2.67;1.00;;;;;11.83;64.76;101071.22;4998058;28;45275;-45
2023/04/02 02:38:51;;;;;;;;;0.00;0.00;;;;;11.80;64.83;101071.47;4998037;28;45544;-44
2023/04/02 02:41:32;;;;;;;;;0.00;0.00;;;;;11.64;65.20;101064.13;4997026;28;47480;-45
2023/04/02 02:44:09;;;;;;;;;2.00;1.00;;;;;11.67;66.56;101083.31;4997736;28;45471;-44
2023/04/02 02:47:06;;;;;;;;;1.67;1.33;;;;;11.65;67.20;101090.59;4997910;28;45329;-44
2023/04/02 02:49:40;;;;;;;;;1.00;0.00;;;;;11.60;67.32;101076.06;4990627;28;45748;-44
2023/04/02 02:52:07;;;;;;;;;2.00;0.67;;;;;11.61;67.73;101085.72;4997707;28;46999;-44
2023/04/02 02:54:37;;;;;;;;;3.33;1.00;;;;;11.58;67.62;101091.31;4997634;28;45262;-43
2023/04/02 02:57:11;;;;;;;;;1.00;1.00;;;;;11.55;68.03;101092.47;4997707;28;45441;-43
2023/04/02 02:59:37;;;;;;;;;1.00;1.00;;;;;11.54;68.43;101097.94;4997847;28;45354;-43
2023/04/02 03:02:05;;;;;;;;;4.00;1.00;;;;;11.49;68.31;101103.69;4997403;28;46388;-43
2023/04/02 03:04:34;;;;;;;;;2.00;2.00;;;;;11.46;67.33;101099.50;4997518;28;45416;-45
2023/04/02 03:07:08;;;;;;;;;2.67;1.33;;;;;11.43;68.64;101101.63;4997737;28;45525;-45
2023/04/02 03:09:51;;;;;;;;;3.00;2.00;;;;;11.41;68.54;101106.22;4997836;28;45294;-43
2023/04/02 03:12:38;;;;;;;;;3.00;1.33;;;;;11.41;69.39;101109.72;4997107;28;46442;-44
2023/04/02 03:15:19;;;;;;;;;1.67;1.67;;;;;11.40;68.97;101112.53;4997255;28;45349;-44
2023/04/02 03:17:54;;;;;;;;;15.00;9.67;;;;;11.37;69.51;101108.34;4997512;28;45266;-45
2023/04/02 03:20:41;;;;;;;;;2.33;2.33;;;;;11.34;69.74;101116.63;4997578;28;45343;-44
2023/04/02 03:23:23;;;;;;;;;2.00;1.67;;;;;11.31;69.40;101111.59;4997113;28;46097;-43
2023/04/02 03:25:55;;;;;;;;;1.00;1.00;;;;;11.31;70.14;101122.22;4997208;28;45491;-45
2023/04/02 03:28:29;;;;;;;;;1.67;1.67;;;;;11.28;70.23;101111.03;4997096;28;45330;-44
2023/04/02 03:31:26;;;;;;;;;1.00;1.00;;;;;11.31;69.28;101127.56;4998561;28;45475;-43
2023/04/02 03:33:57;;;;;;;;;3.00;1.33;;;;;11.29;69.61;101129.50;4959132;28;45512;-44
2023/04/02 03:36:31;;;;;;;;;2.00;2.00;;;;;11.30;69.50;101135.72;4959155;28;45276;-43
2023/04/02 03:39:03;;;;;;;;;4.33;2.33;;;;;11.30;68.95;101135.72;4959458;28;45511;-44
2023/04/02 03:41:54;;;;;;;;;2.00;2.00;;;;;11.26;68.83;101135.16;4959144;28;45276;-43
2023/04/02 03:44:27;;;;;;;;;5.00;2.33;;;;;11.23;68.92;101144.25;4958828;28;46256;-44
2023/04/02 03:46:57;;;;;;;;;2.67;2.67;;;;;11.21;69.22;101154.22;4959231;28;45502;-46
2023/04/02 03:49:30;;;;;;;;;2.00;2.00;;;;;11.20;68.37;101149.00;4959309;28;45408;-46
2023/04/02 03:52:09;;;;;;;;;6.00;3.00;;;;;11.17;68.61;101154.63;4959365;28;45300;-44
2023/04/02 03:54:35;;;;;;;;;2.67;2.00;;;;;11.18;68.42;101153.66;4958679;28;47278;-43
2023/04/02 03:57:01;;;;;;;;;4.33;2.00;;;;;11.15;68.31;101148.59;4958905;28;45492;-44
2023/04/02 03:59:40;;;;;;;;;3.00;2.00;;;;;11.13;68.28;101154.06;4958867;28;45339;-43
2023/04/02 04:02:38;;;;;;;;;3.67;3.00;;;;;11.06;68.25;101147.63;4959153;28;45271;-43
2023/04/02 04:05:15;;;;;;;;;4.00;3.00;;;;;11.13;68.01;101164.72;4900934;29;45424;-43
2023/04/02 04:07:43;;;;;;;;;5.33;2.67;;;;;11.10;68.36;101170.31;4901069;29;45439;-44
2023/04/02 04:10:18;;;;;;;;;7.33;3.67;;;;;11.06;67.86;101168.06;4908526;28;45306;-43
2023/04/02 04:12:47;;;;;;;;;6.67;4.67;;;;;11.07;68.16;101181.22;4939829;28;45384;-43
2023/04/02 04:15:21;;;;;;;;;7.00;5.00;;;;;11.05;67.97;101171.72;4938969;28;46218;-44
2023/04/02 04:18:18;;;;;;;;;8.33;6.00;;;;;11.04;67.88;101181.53;4939338;28;45449;-44
2023/04/02 04:20:55;;;;;;;;;7.00;7.00;;;;;11.01;68.25;101181.81;4939532;28;45487;-43
2023/04/02 04:23:37;;;;;;;;;4.67;3.00;;;;;11.00;68.11;101177.47;4939375;28;45449;-46
2023/04/02 04:26:12;;;;;;;;;3.00;3.00;;;;;10.98;68.26;101185.56;4939189;28;47240;-44
2023/04/02 04:29:12;;;;;;;;;9.33;4.33;;;;;10.95;67.98;101185.00;4939079;28;45569;-43
2023/04/02 04:31:45;;;;;;;;;11.33;4.00;;;;;10.99;68.42;101194.41;4939231;28;45341;-45
2023/04/02 04:34:16;;;;;;;;;8.00;6.33;;;;;10.99;68.69;101195.25;4939298;28;45498;-43
2023/04/02 04:36:53;;;;;;;;;6.00;5.00;;;;;10.94;68.47;101192.16;4939065;28;45395;-43
2023/04/02 04:39:43;;;;;;;;;6.33;6.33;;;;;10.98;67.96;101195.38;4938836;28;45495;-42
2023/04/02 04:42:19;;;;;;;;;7.00;6.67;;;;;10.98;68.04;101206.03;4968793;28;45353;-44
2023/04/02 04:45:02;;;;;;;;;7.00;6.00;;;;;10.91;67.82;101192.44;4999840;28;45406;-43
2023/04/02 04:47:56;;;;;;;;;11.00;8.00;;;;;10.96;68.06;101206.19;4999403;28;46042;-43
2023/04/02 04:50:36;;;;;;;;;7.00;5.67;;;;;10.98;67.77;101219.34;4938681;28;45474;-44
2023/04/02 04:53:07;;;;;;;;;6.00;5.67;;;;;10.95;67.76;101220.44;4939225;28;45446;-43
2023/04/02 04:55:43;;;;;;;;;11.33;8.00;;;;;10.93;68.37;101219.75;4939146;28;45387;-45
2023/04/02 04:58:21;;;;;;;;;11.00;8.67;;;;;10.96;67.91;101229.31;4938654;28;47197;-43
2023/04/02 05:00:55;;;;;;;;;8.00;8.00;;;;;10.93;68.07;101227.75;4938520;28;45408;-44
2023/04/02 05:03:33;;;;;;;;;8.00;7.00;;;;;10.96;68.12;101237.28;4938672;28;45506;-44
2023/04/02 05:06:34;;;;;;;;;8.67;7.00;;;;;10.95;67.77;101248.88;4938956;28;45634;-45
2023/04/02 05:09:12;;;;;;;;;16.00;10.00;;;;;10.87;67.88;101238.09;4881086;29;46592;-44
2023/04/02 05:11:44;;;;;;;;;10.00;8.00;;;;;10.95;68.23;101249.72;4881436;29;45602;-43
2023/04/02 05:14:34;;;;;;;;;8.67;7.67;;;;;10.93;67.60;101251.69;4881023;29;45539;-43
2023/04/02 05:16:59;;;;;;;;;11.33;7.67;;;;;10.95;68.25;101255.06;4881485;29;45444;-43
2023/04/02 05:19:30;;;;;;;;;12.00;8.00;;;;;10.97;67.82;101262.91;4881146;29;45359;-43
2023/04/02 05:22:13;;;;;;;;;15.67;12.00;;;;;10.97;67.97;101276.22;4881276;29;45469;-44
2023/04/02 05:24:59;;;;;;;;;12.00;8.00;;;;;10.83;67.56;101250.84;4881320;29;45478;-45
2023/04/02 05:27:35;;;;;;;;;10.33;6.33;;;;;10.90;67.82;101275.91;4912594;28;45495;-43
2023/04/02 05:30:18;;;;;;;;;13.33;8.67;;;;;10.88;67.66;101279.72;4921892;28;45572;-43
2023/04/02 05:32:49;;;;;;;;;7.00;7.00;;;;;10.81;67.83;101278.56;4938168;28;45372;-44
2023/04/02 05:35:22;;;;;;;;;12.67;7.67;;;;;10.81;67.87;101283.88;4938732;28;45479;-44
2023/04/02 05:37:48;;;;;;;;;8.00;7.33;;;;;10.85;67.96;101280.81;4939035;28;45466;-45
2023/04/02 05:40:28;;;;;;;;;20.00;11.00;;;;;10.82;68.01;101282.91;4938512;28;45384;-45
2023/04/02 05:42:56;;;;;;;;;9.33;9.33;;;;;10.83;67.84;101292.56;4938349;28;45512;-44
2023/04/02 05:45:28;;;;;;;;;11.67;9.33;;;;;10.74;67.64;101291.56;4956990;28;45355;-44
2023/04/02 05:48:00;;;;;;;;;11.00;7.67;;;;;10.78;68.01;101305.44;4999974;28;45220;-44
2023/04/02 05:50:31;;;;;;;;;11.00;8.33;;;;;10.78;68.02;101306.28;4999835;28;45375;-44
2023/04/02 05:53:05;;;;;;;;;12.00;10.33;;;;;10.78;68.08;101308.09;4998600;28;45231;-44
2023/04/02 05:55:43;;;;;;;;;9.00;9.00;;;;;10.78;68.46;101311.59;4999765;28;45377;-44
2023/04/02 05:58:27;;;;;;;;;13.33;10.00;;;;;10.70;67.96;101298.13;5000224;28;45267;-46
2023/04/02 06:01:19;;;;;;;;;8.00;8.00;;;;;10.79;68.20;101317.75;4998461;28;45368;-45
2023/04/02 06:03:56;;;;;;;;;11.00;7.33;;;;;10.79;68.25;101318.63;4937503;28;45359;-44
2023/04/02 06:07:08;;;;;;;;;9.00;7.00;;;;;10.79;68.45;101317.75;4937943;28;45416;-44
2023/04/02 06:09:41;;;;;;;;;13.00;7.00;;;;;10.69;68.19;101309.75;4880899;29;45278;-45
2023/04/02 06:12:15;;;;;;;;;10.33;8.00;;;;;10.80;68.46;101319.47;4880616;29;45570;-44
2023/04/02 06:14:40;;;;;;;;;11.33;10.33;;;;;10.79;68.20;101325.75;4880274;29;45481;-46
2023/04/02 06:17:06;;;;;;;;;8.33;7.00;;;;;10.79;68.40;101331.94;4880322;29;45468;-45
2023/04/02 06:19:36;;;;;;;;;8.67;5.67;;;;;10.78;68.39;101332.88;4880746;29;45403;-46
2023/04/02 06:22:38;;;;;;;;;11.33;7.67;;;;;10.77;68.57;101331.22;4880359;29;46441;-44
2023/04/02 06:25:20;;;;;;;;;11.67;9.00;;;;;10.76;68.58;101345.50;4806124;29;45417;-43
2023/04/02 06:27:48;;;;;;;;;7.33;6.33;;;;;10.82;68.50;101346.78;4806194;29;45502;-47
2023/04/02 06:30:20;;;;;;;;;10.67;7.67;;;;;10.79;68.10;101341.72;4806185;29;45318;-44
2023/04/02 06:32:45;;;;;;;;;7.67;6.00;;;;;10.77;68.02;101349.84;4805824;29;46395;-45
2023/04/02 06:35:12;;;;;;;;;16.00;8.00;;;;;10.76;67.60;101353.47;4805804;29;45367;-47
2023/04/02 06:37:42;;;;;;;;;10.67;6.67;;;;;10.72;67.85;101358.22;4805523;29;45356;-48
2023/04/02 06:40:44;;;;;;;;;8.67;6.67;;;;;10.75;67.90;101359.78;4816607;29;45504;-47
2023/04/02 06:43:32;;;;;;;;;1.00;0.00;;;;;10.76;67.83;101363.28;4861254;29;45492;-47
2023/04/02 06:46:01;;;;;;;;;12.00;7.67;;;;;10.76;67.92;101363.28;4895930;29;45473;-48
2023/04/02 06:48:28;;;;;;;;;6.67;6.67;;;;;10.77;67.98;101363.16;4898975;29;45490;-47
2023/04/02 06:51:00;;;;;;;;;12.33;6.67;;;;;10.72;67.89;101363.53;4899213;29;45489;-47
2023/04/02 06:53:33;;;;;;;;;6.33;6.33;;;;;10.82;67.61;101373.38;4898743;29;45482;-46
2023/04/02 06:56:07;;;;;;;;;9.00;8.00;;;;;10.82;67.85;101376.88;4898790;29;45341;-52
2023/04/02 06:58:32;;;;;;;;;6.67;6.33;;;;;10.82;67.45;101376.06;4928261;28;45478;-48
2023/04/02 07:00:57;;;;;;;;;10.33;8.33;;;;;10.82;67.49;101378.72;4997671;28;45397;-48
2023/04/02 07:03:26;;;;;;;;;7.00;7.00;;;;;10.81;67.41;101387.69;4997516;28;46321;-50
2023/04/02 07:05:52;;;;;;;;;5.33;4.33;;;;;10.73;67.71;101385.66;4997334;28;45472;-52
2023/04/02 07:08:17;;;;;;;;;14.67;9.00;;;;;10.69;67.71;101384.25;4997788;28;45182;-49
2023/04/02 07:10:43;;;;;;;;;6.33;4.33;;;;;10.79;67.49;101408.25;4997855;28;45170;-46
2023/04/02 07:13:17;;;;;;;;;8.00;8.00;;;;;10.79;67.96;101408.25;4997288;28;45399;-58
2023/04/02 07:15:47;;;;;;;;;11.00;8.33;;;;;10.79;67.43;101419.75;4997086;28;45433;-57
2023/04/02 07:18:26;;;;;;;;;12.67;11.33;;;;;10.79;67.86;101416.22;4997326;28;45449;-57
2023/04/02 07:20:52;;;;;;;;;14.00;11.33;;;;;10.80;67.94;101417.94;4997444;28;45217;-56
2023/04/02 07:23:17;;;;;;;;;11.00;10.00;;;;;10.81;67.96;101427.59;4996815;28;47253;-55
2023/04/02 07:25:43;;;;;;;;;9.67;9.67;;;;;10.75;68.04;101413.00;4997504;28;45345;-51
2023/04/02 07:28:08;;;;;;;;;9.00;7.33;;;;;10.83;67.54;101425.63;4997284;28;45287;-56
2023/04/02 07:30:34;;;;;;;;;10.00;8.33;;;;;10.82;67.69;101439.94;4997311;28;45377;-47
2023/04/02 07:33:00;;;;;;;;;13.00;10.00;;;;;10.84;67.40;101443.31;4996964;28;46982;-52
2023/04/02 07:35:25;;;;;;;;;15.00;10.00;;;;;10.74;67.67;101422.81;4997013;28;45408;-58
2023/04/02 07:37:51;;;;;;;;;11.33;10.00;;;;;10.83;67.39;101442.47;4997025;28;45229;-52
2023/04/02 07:40:20;;;;;;;;;11.00;10.67;;;;;10.85;67.39;101447.66;4997162;28;45413;-56
2023/04/02 07:42:46;;;;;;;;;16.00;11.00;;;;;10.92;69.61;101451.50;4996813;28;45481;-58
2023/04/02 07:45:12;;;;;;;;;13.33;11.00;;;;;10.94;69.27;101434.38;4996879;28;45409;-51
2023/04/02 07:47:37;;;;;;;;;13.33;11.67;;;;;11.09;67.09;101450.88;4997039;28;45354;-54
2023/04/02 07:50:04;;;;;;;;;20.67;12.00;;;;;11.11;67.24;101456.06;4997070;28;45293;-59
2023/04/02 07:52:30;;;;;;;;;12.67;11.00;;;;;11.14;67.31;101472.63;4996746;28;46292;-61
2023/04/02 07:54:55;;;;;;;;;13.67;12.67;;;;;11.16;67.21;101459.16;4996753;28;45311;-63
2023/04/02 07:57:21;;;;;;;;;18.00;16.33;;;;;11.10;66.91;101462.38;4996841;28;45270;-63
2023/04/02 07:59:46;;;;;;;;;15.67;12.33;;;;;11.13;67.20;101465.59;4997122;28;45335;-63
2023/04/02 08:02:20;;;;;;;;;21.33;12.67;;;;;11.15;67.87;101465.47;4996985;28;46073;-61
2023/04/02 08:04:46;;;;;;;;;17.67;13.67;;;;;11.19;67.74;101473.06;4996796;28;45282;-62
2023/04/02 08:07:11;;;;;;;;;15.00;11.00;;;;;11.21;67.62;101470.28;4997001;28;45273;-58
2023/04/02 08:09:37;;;;;;;;;14.67;11.00;;;;;11.29;67.73;101482.91;4996941;28;45287;-50
2023/04/02 08:12:02;;;;;;;;;15.67;12.33;;;;;11.30;67.76;101484.63;4996610;28;46021;-60
2023/04/02 08:14:27;;;;;;;;;13.33;13.33;;;;;11.35;67.22;101491.22;4996538;28;45425;-57
2023/04/02 08:16:54;;;;;;;;;15.33;11.33;;;;;11.38;67.01;101496.28;4997765;28;45333;-60
2023/04/02 08:19:20;;;;;;;;;14.67;11.67;;;;;11.42;67.17;101500.38;5000255;28;45513;-59
2023/04/02 08:21:49;;;;;;;;;12.67;8.00;;;;;11.45;67.30;101499.25;5000003;28;45367;-58
2023/04/02 08:24:17;;;;;;;;;12.00;11.33;;;;;11.48;67.00;101499.81;4999741;28;45515;-61
2023/04/02 08:26:46;;;;;;;;;15.33;12.33;;;;;11.51;66.34;101500.56;5000025;28;45314;-56
2023/04/02 08:29:11;;;;;;;;;20.00;12.00;;;;;11.53;66.51;101504.75;5000007;28;45330;-55
2023/04/02 08:31:37;;;;;;;;;16.33;13.00;;;;;11.54;66.20;101508.25;4999570;28;49417;-61
2023/04/02 08:34:02;;;;;;;;;14.00;11.33;;;;;11.58;66.38;101502.53;5000008;28;45284;-61
2023/04/02 08:36:33;;;;;;;;;18.33;11.00;;;;;11.62;66.67;101508.44;4999771;28;45215;-59
2023/04/02 08:38:58;;;;;;;;;11.67;11.33;;;;;11.64;66.12;101506.47;5000060;28;45362;-57
2023/04/02 08:41:31;;;;;;;;;12.00;11.00;;;;;11.57;66.08;101494.66;4999437;28;47161;-57
2023/04/02 08:44:14;;;;;;;;;17.00;11.67;;;;;11.70;66.59;101514.75;4999639;28;45520;-58
2023/04/02 08:46:55;;;;;;;;;15.00;12.67;;;;;11.75;66.14;101522.34;4999532;28;45263;-58
2023/04/02 08:49:34;;;;;;;;;12.67;11.00;;;;;11.79;65.70;101526.44;4999723;28;45415;-63
2023/04/02 08:52:00;;;;;;;;;11.00;11.00;;;;;11.82;65.79;101520.84;4999298;28;46163;-61
2023/04/02 08:54:36;;;;;;;;;12.33;9.33;;;;;11.93;65.04;101530.59;4999433;28;45251;-60
2023/04/02 08:57:39;;;;;;;;;9.33;9.33;;;;;11.97;64.47;101534.69;4999698;28;45474;-61
2023/04/02 09:00:29;;;;;;;;;16.00;10.00;;;;;11.98;64.17;101529.19;5000068;28;45523;-62
2023/04/02 09:03:26;;;;;;;;;15.67;8.00;;;;;11.98;63.83;101553.19;4998244;28;45435;-54
2023/04/02 09:05:52;;;;;;;;;12.00;10.00;;;;;11.93;63.70;101559.94;4999469;28;45377;-60
2023/04/02 09:08:20;;;;;;;;;9.00;8.67;;;;;11.84;64.18;101544.72;4999328;28;45307;-58
2023/04/02 09:11:18;;;;;;;;;24.67;19.00;;;;;11.91;64.23;101576.03;4999412;28;45328;-61
2023/04/02 09:13:47;;;;;;;;;17.00;14.00;;;;;11.85;64.15;101573.09;4999066;28;47249;-61
2023/04/02 09:16:17;;;;;;;;;14.00;13.00;;;;;11.91;64.25;101583.19;4998953;28;45493;-59
2023/04/02 09:18:43;;;;;;;;;13.00;9.33;;;;;11.89;64.27;101582.50;4981449;28;45276;-57
2023/04/02 09:21:21;;;;;;;;;12.67;8.67;;;;;11.80;63.91;101588.59;4999207;28;45406;-58
2023/04/02 09:23:48;;;;;;;;;14.33;9.67;;;;;11.85;64.26;101589.09;4998958;28;46110;-60
2023/04/02 09:26:22;;;;;;;;;13.67;8.67;;;;;11.84;64.26;101592.72;4999050;28;45359;-63
2023/04/02 09:28:51;;;;;;;;;17.00;11.67;;;;;11.86;64.27;101607.59;4997908;28;45405;-60
2023/04/02 09:31:30;;;;;;;;;14.00;11.00;;;;;11.88;64.45;101605.66;4999109;28;45397;-60
2023/04/02 09:33:56;;;;;;;;;15.33;11.67;;;;;11.90;64.40;101605.53;4980998;28;46578;-60
2023/04/02 09:36:32;;;;;;;;;15.33;10.67;;;;;11.92;64.45;101606.22;4998611;28;45346;-63
2023/04/02 09:39:05;;;;;;;;;14.33;13.33;;;;;11.98;63.94;101619.03;4999109;28;45294;-59
2023/04/02 09:41:32;;;;;;;;;12.00;9.00;;;;;12.01;63.44;101610.78;4998545;28;45427;-63
2023/04/02 09:44:12;;;;;;;;;13.33;12.00;;;;;11.96;63.29;101605.81;4998678;28;45312;-58
2023/04/02 09:46:53;;;;;;;;;14.33;9.67;;;;;12.03;63.61;101613.28;4997983;28;45386;-62
2023/04/02 09:49:22;;;;;;;;;14.67;9.67;;;;;11.99;63.16;101604.72;4998823;28;45306;-63
2023/04/02 09:52:06;;;;;;;;;15.33;12.00;;;;;12.05;63.31;101617.53;4998840;28;45498;-61
2023/04/02 09:54:40;;;;;;;;;13.00;12.00;;;;;12.03;62.73;101619.47;4998462;28;47512;-60
2023/04/02 09:57:15;;;;;;;;;8.00;8.00;;;;;12.09;63.20;101620.72;4998694;28;45358;-63
2023/04/02 09:59:40;;;;;;;;;10.33;8.00;;;;;12.13;62.56;101630.16;4998872;28;45322;-55
2023/04/02 10:02:27;;;;;;;;;14.67;10.33;;;;;12.02;62.55;101616.94;4981300;28;45224;-62
2023/04/02 10:04:52;;;;;;;;;10.67;8.67;;;;;12.12;62.15;101628.47;4998887;28;46069;-62
2023/04/02 10:07:37;;;;;;;;;13.00;12.67;;;;;12.12;62.46;101637.31;4998373;28;45406;-58
2023/04/02 10:10:23;;;;;;;;;17.67;11.33;;;;;12.09;63.04;101632.25;4998649;28;45610;-61
2023/04/02 10:12:59;;;;;;;;;14.00;11.33;;;;;12.07;62.71;101636.88;4998193;28;45525;-61
2023/04/02 10:15:53;;;;;;;;;19.67;14.33;;;;;11.98;62.67;101651.03;4998246;28;46319;-63
2023/04/02 10:18:43;;;;;;;;;15.00;10.33;;;;;11.93;62.68;101656.75;4990940;28;45441;-55
2023/04/02 10:21:20;;;;;;;;;11.67;11.33;;;;;11.93;62.85;101654.09;4998315;28;45251;-60
2023/04/02 10:23:46;;;;;;;;;23.00;16.00;;;;;11.92;62.99;101663.03;4998546;28;45265;-60
2023/04/02 10:26:26;;;;;;;;;18.00;12.33;;;;;11.93;63.06;101666.59;4998120;28;45529;-58
2023/04/02 10:29:04;;;;;;;;;17.33;12.33;;;;;11.91;62.35;101671.19;4998129;28;45394;-58
2023/04/02 10:32:11;;;;;;;;;19.00;12.67;;;;;11.92;62.29;101678.19;4998151;28;45418;-59
2023/04/02 10:34:46;;;;;;;;;13.00;10.00;;;;;11.91;62.54;101666.69;4937761;28;45494;-61
2023/04/02 10:37:26;;;;;;;;;16.00;13.67;;;;;11.89;62.43;101682.00;4937486;28;45614;-62
2023/04/02 10:40:13;;;;;;;;;20.33;10.00;;;;;11.80;62.31;101671.22;4937005;28;45514;-64
2023/04/02 10:42:59;;;;;;;;;19.00;13.00;;;;;11.86;62.61;101687.59;4937301;28;45272;-61
2023/04/02 10:45:40;;;;;;;;;15.00;12.33;;;;;11.86;62.47;101682.25;4937446;28;45586;-61
2023/04/02 10:48:19;;;;;;;;;13.00;10.00;;;;;11.88;62.46;101682.09;4937071;28;46449;-65
2023/04/02 10:51:21;;;;;;;;;18.67;14.33;;;;;11.92;62.55;101688.88;4936994;28;45659;-64
2023/04/02 10:54:15;;;;;;;;;17.33;13.00;;;;;11.95;62.02;101688.63;4937230;28;45474;-63
2023/04/02 10:56:41;;;;;;;;;14.67;9.00;;;;;11.92;62.05;101695.03;4918018;28;45570;-59
2023/04/02 10:59:29;;;;;;;;;10.33;8.67;;;;;11.96;61.88;101706.28;4917605;28;46289;-61
2023/04/02 11:01:58;;;;;;;;;14.33;12.00;;;;;11.96;61.92;101707.13;4917730;28;45458;-62
2023/04/02 11:04:23;;;;;;;;;12.67;7.67;;;;;11.96;61.35;101706.28;4917746;28;45486;-63
2023/04/02 11:07:19;;;;;;;;;13.67;12.67;;;;;11.97;62.08;101708.00;4918002;28;45452;-63
2023/04/02 11:09:49;;;;;;;;;12.00;12.00;;;;;11.95;61.98;101707.28;4917703;28;46202;-62
2023/04/02 11:12:22;;;;;;;;;13.33;12.00;;;;;11.93;62.10;101720.75;4951815;28;45283;-62
2023/04/02 11:14:49;;;;;;;;;16.33;13.00;;;;;11.94;62.19;101721.59;4956253;28;45391;-60
2023/04/02 11:17:15;;;;;;;;;18.00;13.67;;;;;11.94;62.24;101721.59;4956500;28;45344;-63
2023/04/02 11:19:40;;;;;;;;;23.67;17.33;;;;;11.92;62.34;101729.72;4955369;28;45388;-62
2023/04/02 11:22:21;;;;;;;;;15.00;13.67;;;;;11.92;61.88;101727.03;4956147;28;45393;-62
2023/04/02 11:24:53;;;;;;;;;15.00;11.67;;;;;11.89;62.24;101713.16;4956196;28;45503;-63
2023/04/02 11:27:26;;;;;;;;;12.33;10.67;;;;;11.90;62.37;101717.50;4956126;28;45569;-56
2023/04/02 11:30:12;;;;;;;;;14.33;13.00;;;;;11.93;61.98;101725.25;4955835;28;45444;-60
2023/04/02 11:32:44;;;;;;;;;20.33;11.67;;;;;11.90;62.19;101729.00;4956239;28;45414;-60
2023/04/02 11:35:35;;;;;;;;;16.67;14.00;;;;;11.90;62.22;101730.84;4997220;28;45364;-60
2023/04/02 11:38:10;;;;;;;;;15.67;10.33;;;;;11.90;62.29;101736.16;4979626;28;45358;-62
2023/04/02 11:40:57;;;;;;;;;19.33;15.67;;;;;11.87;61.90;101733.75;4996842;28;46182;-60
2023/04/02 11:43:32;;;;;;;;;17.00;13.00;;;;;11.87;62.04;101731.09;4996989;28;45340;-61
2023/04/02 11:46:00;;;;;;;;;14.00;12.00;;;;;11.86;61.83;101735.56;4997174;28;45330;-58
2023/04/02 11:48:32;;;;;;;;;15.67;13.00;;;;;11.89;61.78;101737.16;4997080;28;45449;-58
2023/04/02 11:51:03;;;;;;;;;16.67;12.00;;;;;11.90;62.09;101742.34;4995448;28;45425;-58
2023/04/02 11:53:33;;;;;;;;;18.33;16.33;;;;;11.91;62.14;101743.19;4999954;28;45338;-59
2023/04/02 11:56:15;;;;;;;;;14.00;14.00;;;;;11.85;62.43;101743.72;4999957;28;45418;-57